Time;durP1;ratioP1;P1;durP2;ratioP2;P2;SDS_P1;SDS_P2;PMS_P1;PMS_P2;Temp;Humidity;BMP_temperature;BMP_pressure;BME280_temperature;BME280_humidity;BME280_pressure;Samples;Min_cycle;Max_cycle;Signal;HPM_P1;HPM_P2
2021/09/05 00:01:28;;;;;;;1.42;1.08;;;;;;;;;;4989602;28;20113;-68
2021/09/05 00:03:53;;;;;;;2.17;1.00;;;;;;;;;;4990105;28;20026;-68
2021/09/05 00:06:19;;;;;;;1.70;1.00;;;;;;;;;;4983431;28;20037;-68
2021/09/05 00:08:44;;;;;;;1.40;1.00;;;;;;;;;;4990447;28;20489;-68
2021/09/05 00:11:11;;;;;;;2.33;1.23;;;;;;;;;;5009108;28;20053;-68
2021/09/05 00:13:36;;;;;;;1.17;0.90;;;;;;;;;;5010267;28;20032;-68
2021/09/05 00:16:02;;;;;;;1.30;0.95;;;;;;;;;;5009752;28;20026;-68
2021/09/05 00:18:27;;;;;;;2.17;1.08;;;;;;;;;;5009531;28;20087;-68
2021/09/05 00:20:53;;;;;;;3.70;1.02;;;;;;;;;;5012127;28;20025;-68
2021/09/05 00:23:18;;;;;;;1.13;0.82;;;;;;;;;;5013158;28;20025;-69
2021/09/05 00:25:44;;;;;;;1.58;1.02;;;;;;;;;;5013394;28;20255;-68
2021/09/05 00:28:09;;;;;;;3.20;1.02;;;;;;;;;;5013970;28;20041;-68
2021/09/05 00:30:35;;;;;;;1.55;1.05;;;;;;;;;;5013453;28;20446;-68
2021/09/05 00:33:02;;;;;;;3.53;1.20;;;;;;;;;;5013814;28;20037;-68
2021/09/05 00:35:28;;;;;;;1.17;0.82;;;;;;;;;;5013297;28;20065;-69
2021/09/05 00:37:53;;;;;;;3.45;1.13;;;;;;;;;;5013463;28;20025;-68
2021/09/05 00:40:19;;;;;;;1.20;1.00;;;;;;;;;;5013094;28;20030;-68
2021/09/05 00:42:44;;;;;;;2.55;1.00;;;;;;;;;;5011941;28;20034;-68
2021/09/05 00:45:11;;;;;;;1.48;1.00;;;;;;;;;;5013337;28;20440;-68
2021/09/05 00:47:37;;;;;;;1.48;0.95;;;;;;;;;;5013086;28;20608;-67
2021/09/05 00:50:03;;;;;;;1.27;0.88;;;;;;;;;;5013489;28;20033;-68
2021/09/05 00:52:29;;;;;;;1.35;1.00;;;;;;;;;;5013109;28;20493;-68
2021/09/05 00:54:55;;;;;;;2.50;0.93;;;;;;;;;;5013089;28;20022;-68
2021/09/05 00:57:22;;;;;;;2.85;1.30;;;;;;;;;;5012599;28;20096;-68
2021/09/05 00:59:50;;;;;;;1.00;0.90;;;;;;;;;;5013298;28;20024;-68
2021/09/05 01:02:16;;;;;;;1.25;0.85;;;;;;;;;;5012774;28;20033;-68
2021/09/05 01:04:42;;;;;;;1.77;1.00;;;;;;;;;;5013019;28;20540;-68
2021/09/05 01:07:09;;;;;;;1.90;0.93;;;;;;;;;;5012810;28;20033;-68
2021/09/05 01:09:35;;;;;;;1.48;1.00;;;;;;;;;;5011950;28;20052;-68
2021/09/05 01:12:01;;;;;;;2.03;1.15;;;;;;;;;;5013074;28;20046;-67
2021/09/05 01:14:27;;;;;;;2.78;1.08;;;;;;;;;;5012969;28;20040;-68
2021/09/05 01:16:53;;;;;;;2.55;1.10;;;;;;;;;;5013035;28;20017;-68
2021/09/05 01:19:21;;;;;;;2.67;1.02;;;;;;;;;;5012103;28;20033;-67
2021/09/05 01:21:49;;;;;;;1.45;1.00;;;;;;;;;;5012855;28;20462;-68
2021/09/05 01:24:16;;;;;;;1.15;0.90;;;;;;;;;;5012699;28;20528;-68
2021/09/05 01:26:44;;;;;;;1.92;1.00;;;;;;;;;;5012525;28;20062;-67
2021/09/05 01:29:10;;;;;;;1.75;1.20;;;;;;;;;;5012565;28;20030;-68
2021/09/05 01:31:56;;;;;;;2.15;1.25;;;;;;;;;;5010868;28;20041;-67
2021/09/05 01:34:23;;;;;;;1.83;1.05;;;;;;;;;;4993876;28;20511;-68
2021/09/05 01:36:51;;;;;;;1.52;1.02;;;;;;;;;;5011623;28;20080;-68
2021/09/05 01:39:19;;;;;;;1.48;1.08;;;;;;;;;;5009754;28;20029;-68
2021/09/05 01:41:46;;;;;;;2.63;0.93;;;;;;;;;;5012523;28;20014;-68
2021/09/05 01:44:23;;;;;;;1.70;1.20;;;;;;;;;;5012414;28;20038;-68
2021/09/05 01:46:48;;;;;;;0.75;0.75;;;;;;;;;;5012450;28;20346;-68
2021/09/05 01:49:14;;;;;;;1.48;1.00;;;;;;;;;;5012249;28;20033;-68
2021/09/05 01:51:40;;;;;;;0.93;0.80;;;;;;;;;;5011843;28;20021;-68
2021/09/05 01:54:05;;;;;;;1.92;1.00;;;;;;;;;;5011946;28;20146;-67
2021/09/05 01:56:32;;;;;;;1.70;1.17;;;;;;;;;;5007119;28;20371;-68
2021/09/05 01:58:59;;;;;;;1.60;1.20;;;;;;;;;;5010629;28;20034;-68
2021/09/05 02:01:25;;;;;;;4.22;1.10;;;;;;;;;;5011711;28;20348;-68
2021/09/05 02:03:51;;;;;;;3.28;0.95;;;;;;;;;;5011877;28;20029;-68
2021/09/05 02:06:16;;;;;;;1.17;0.90;;;;;;;;;;5011979;28;20030;-68
2021/09/05 02:08:42;;;;;;;1.00;0.90;;;;;;;;;;5011576;28;20033;-68
2021/09/05 02:11:10;;;;;;;2.22;1.00;;;;;;;;;;5011107;28;20034;-67
2021/09/05 02:13:36;;;;;;;3.22;1.40;;;;;;;;;;5011477;28;20022;-68
2021/09/05 02:16:01;;;;;;;3.35;1.25;;;;;;;;;;5011722;28;20037;-68
2021/09/05 02:18:27;;;;;;;2.78;1.15;;;;;;;;;;5011109;28;20041;-67
2021/09/05 02:20:54;;;;;;;2.25;1.13;;;;;;;;;;5011359;28;20493;-68
2021/09/05 02:23:19;;;;;;;2.13;1.13;;;;;;;;;;5011444;28;20029;-67
2021/09/05 02:25:45;;;;;;;3.42;1.52;;;;;;;;;;5011535;28;20029;-68
2021/09/05 02:28:10;;;;;;;2.45;1.20;;;;;;;;;;5011736;28;20033;-68
2021/09/05 02:30:36;;;;;;;1.85;1.35;;;;;;;;;;4993591;28;20022;-68
2021/09/05 02:33:03;;;;;;;2.47;1.20;;;;;;;;;;5011024;28;20026;-68
2021/09/05 02:35:28;;;;;;;1.95;1.30;;;;;;;;;;5011335;28;20329;-68
2021/09/05 02:37:54;;;;;;;3.15;1.00;;;;;;;;;;4993442;28;20025;-67
2021/09/05 02:40:19;;;;;;;1.70;1.10;;;;;;;;;;5011378;28;20022;-68
2021/09/05 02:42:45;;;;;;;1.77;1.10;;;;;;;;;;5010758;28;20418;-68
2021/09/05 02:45:11;;;;;;;1.77;1.10;;;;;;;;;;5011155;28;20034;-67
2021/09/05 02:47:37;;;;;;;2.17;1.17;;;;;;;;;;5010947;28;20112;-67
2021/09/05 02:50:03;;;;;;;1.45;1.02;;;;;;;;;;5011051;28;20553;-68
2021/09/05 02:52:29;;;;;;;3.88;1.30;;;;;;;;;;5004229;28;20378;-67
2021/09/05 02:54:54;;;;;;;1.60;1.13;;;;;;;;;;5011216;28;20030;-68
2021/09/05 02:57:20;;;;;;;2.40;1.58;;;;;;;;;;5010908;28;20022;-68
2021/09/05 02:59:46;;;;;;;2.70;1.20;;;;;;;;;;5010967;28;20037;-68
2021/09/05 03:02:11;;;;;;;2.28;1.20;;;;;;;;;;5010486;28;20406;-68
2021/09/05 03:04:36;;;;;;;2.65;1.30;;;;;;;;;;5010884;28;20486;-68
2021/09/05 03:07:02;;;;;;;1.98;1.23;;;;;;;;;;5010749;28;20030;-68
2021/09/05 03:09:28;;;;;;;1.85;1.00;;;;;;;;;;5010309;28;20046;-67
2021/09/05 03:11:53;;;;;;;1.63;1.13;;;;;;;;;;5010807;28;20067;-67
2021/09/05 03:14:19;;;;;;;1.88;1.17;;;;;;;;;;5010801;28;20390;-67
2021/09/05 03:16:44;;;;;;;4.25;1.20;;;;;;;;;;5010637;28;20529;-68
2021/09/05 03:19:10;;;;;;;1.77;1.10;;;;;;;;;;5008562;28;20029;-68
2021/09/05 03:21:37;;;;;;;1.13;0.85;;;;;;;;;;4992586;28;20022;-67
2021/09/05 03:24:03;;;;;;;1.63;1.10;;;;;;;;;;5010540;28;20041;-68
2021/09/05 03:26:28;;;;;;;1.90;0.80;;;;;;;;;;5010501;28;20041;-68
2021/09/05 03:28:55;;;;;;;2.13;1.10;;;;;;;;;;5010315;28;20026;-68
2021/09/05 03:31:20;;;;;;;2.13;1.30;;;;;;;;;;5010426;28;20030;-68
2021/09/05 03:33:46;;;;;;;3.75;1.00;;;;;;;;;;5010052;28;20085;-68
2021/09/05 03:36:11;;;;;;;1.58;0.95;;;;;;;;;;4992604;28;20076;-68
2021/09/05 03:38:37;;;;;;;2.17;1.23;;;;;;;;;;5010369;28;20030;-68
2021/09/05 03:41:02;;;;;;;1.67;1.00;;;;;;;;;;5010149;28;20022;-67
2021/09/05 03:43:28;;;;;;;1.70;1.23;;;;;;;;;;5010417;28;20022;-68
2021/09/05 03:45:53;;;;;;;1.92;1.20;;;;;;;;;;5010570;28;20030;-67
2021/09/05 03:48:18;;;;;;;1.75;1.08;;;;;;;;;;5010578;28;20389;-68
2021/09/05 03:50:44;;;;;;;2.30;1.20;;;;;;;;;;5010427;28;20501;-68
2021/09/05 03:53:09;;;;;;;1.67;1.00;;;;;;;;;;5010092;28;20033;-67
2021/09/05 03:55:35;;;;;;;1.75;1.25;;;;;;;;;;5011861;28;20029;-68
2021/09/05 03:58:02;;;;;;;2.72;0.90;;;;;;;;;;5013921;28;20038;-68
2021/09/05 04:00:28;;;;;;;1.15;1.00;;;;;;;;;;5013726;28;20036;-68
2021/09/05 04:02:54;;;;;;;1.67;1.00;;;;;;;;;;5014339;28;20038;-68
2021/09/05 04:05:19;;;;;;;1.70;0.88;;;;;;;;;;5013473;28;20075;-68
2021/09/05 04:10:30;;;;;;;0.90;0.80;;;;;;;;;;5013087;28;20564;-68
2021/09/05 04:12:57;;;;;;;2.15;0.98;;;;;;;;;;5014265;28;20030;-68
2021/09/05 04:15:22;;;;;;;2.10;1.10;;;;;;;;;;5013835;28;20030;-68
2021/09/05 04:17:48;;;;;;;1.50;0.90;;;;;;;;;;5013491;28;20378;-68
2021/09/05 04:20:13;;;;;;;1.45;1.00;;;;;;;;;;5013714;28;20026;-68
2021/09/05 04:22:39;;;;;;;2.03;1.20;;;;;;;;;;5013654;28;20069;-68
2021/09/05 04:25:05;;;;;;;1.02;0.80;;;;;;;;;;5013885;28;20017;-67
2021/09/05 04:27:31;;;;;;;1.40;0.88;;;;;;;;;;5013269;28;20038;-67
2021/09/05 04:29:57;;;;;;;1.30;1.00;;;;;;;;;;5013568;28;20022;-68
2021/09/05 04:32:23;;;;;;;1.42;1.20;;;;;;;;;;5013843;28;20033;-68
2021/09/05 04:34:49;;;;;;;1.80;0.90;;;;;;;;;;5013156;28;20034;-68
2021/09/05 04:37:18;;;;;;;2.17;1.10;;;;;;;;;;5013530;28;20253;-68
2021/09/05 04:39:44;;;;;;;1.92;1.05;;;;;;;;;;5013260;28;20038;-68
2021/09/05 04:42:10;;;;;;;1.88;1.10;;;;;;;;;;5013453;28;20042;-68
2021/09/05 04:44:36;;;;;;;4.22;1.20;;;;;;;;;;5013027;28;20481;-68
2021/09/05 04:47:03;;;;;;;1.77;1.08;;;;;;;;;;5012889;28;20029;-68
2021/09/05 04:49:28;;;;;;;5.07;1.00;;;;;;;;;;5012529;28;20064;-68
2021/09/05 04:51:54;;;;;;;1.63;0.98;;;;;;;;;;5013518;28;20405;-68
2021/09/05 04:54:19;;;;;;;2.60;1.00;;;;;;;;;;5013352;28;20504;-68
2021/09/05 04:56:45;;;;;;;2.08;1.02;;;;;;;;;;5012325;28;20107;-68
2021/09/05 04:59:10;;;;;;;2.13;1.00;;;;;;;;;;5012810;28;20036;-68
2021/09/05 05:01:36;;;;;;;1.30;1.00;;;;;;;;;;5012621;28;20152;-68
2021/09/05 05:04:02;;;;;;;0.75;0.68;;;;;;;;;;5012847;28;20112;-67
2021/09/05 05:06:27;;;;;;;3.17;0.82;;;;;;;;;;5013588;28;20567;-68
2021/09/05 05:08:53;;;;;;;1.95;1.23;;;;;;;;;;5012461;28;20367;-68
2021/09/05 05:11:18;;;;;;;1.60;0.85;;;;;;;;;;5012917;28;20382;-68
2021/09/05 05:13:44;;;;;;;1.15;0.93;;;;;;;;;;5012583;28;20474;-68
2021/09/05 05:16:10;;;;;;;2.00;0.80;;;;;;;;;;5013195;28;20018;-68
2021/09/05 05:18:35;;;;;;;1.02;0.63;;;;;;;;;;5012061;28;20036;-67
2021/09/05 05:21:01;;;;;;;1.23;0.70;;;;;;;;;;5012630;28;20033;-67
2021/09/05 05:23:26;;;;;;;6.25;0.98;;;;;;;;;;5011726;28;20022;-68
2021/09/05 05:25:52;;;;;;;1.08;0.82;;;;;;;;;;5012286;28;20025;-68
2021/09/05 05:28:18;;;;;;;1.45;0.82;;;;;;;;;;5012511;28;20462;-68
2021/09/05 05:30:44;;;;;;;1.05;0.85;;;;;;;;;;5011725;28;20032;-68
2021/09/05 05:33:10;;;;;;;1.30;0.80;;;;;;;;;;5012688;28;20026;-68
2021/09/05 05:35:36;;;;;;;2.22;1.15;;;;;;;;;;5012217;28;20037;-68
2021/09/05 05:38:01;;;;;;;2.03;0.90;;;;;;;;;;5009527;28;20034;-68
2021/09/05 05:40:32;;;;;;;2.30;1.17;;;;;;;;;;5012204;28;20026;-68
2021/09/05 05:42:58;;;;;;;1.58;0.90;;;;;;;;;;5012835;28;20401;-69
2021/09/05 05:45:24;;;;;;;1.73;0.80;;;;;;;;;;5012518;28;20482;-68
2021/09/05 05:47:49;;;;;;;1.65;0.90;;;;;;;;;;5012043;28;20375;-68
2021/09/05 05:50:15;;;;;;;2.67;0.90;;;;;;;;;;5012075;28;20033;-68
2021/09/05 05:52:40;;;;;;;1.42;0.80;;;;;;;;;;5011875;28;20026;-68
2021/09/05 05:55:06;;;;;;;2.05;0.93;;;;;;;;;;5012331;28;20026;-68
2021/09/05 05:57:32;;;;;;;2.45;0.88;;;;;;;;;;5011999;28;20034;-68
2021/09/05 05:59:57;;;;;;;1.75;0.82;;;;;;;;;;5011716;28;20371;-68
2021/09/05 06:02:23;;;;;;;1.35;0.90;;;;;;;;;;5012106;28;20058;-68
2021/09/05 06:04:49;;;;;;;1.73;1.00;;;;;;;;;;5011879;28;20474;-68
2021/09/05 06:07:14;;;;;;;2.35;0.90;;;;;;;;;;5011690;28;20026;-69
2021/09/05 06:09:41;;;;;;;1.40;0.90;;;;;;;;;;5011222;28;20426;-69
2021/09/05 06:12:08;;;;;;;1.45;0.80;;;;;;;;;;5012150;28;20117;-69
2021/09/05 06:14:33;;;;;;;1.40;0.80;;;;;;;;;;5011344;28;20033;-69
2021/09/05 06:16:59;;;;;;;1.10;0.70;;;;;;;;;;5011550;28;20474;-69
2021/09/05 06:19:24;;;;;;;1.80;0.90;;;;;;;;;;5008816;28;20438;-68
2021/09/05 06:21:50;;;;;;;1.77;0.93;;;;;;;;;;5011272;28;20121;-69
2021/09/05 06:24:16;;;;;;;1.75;0.80;;;;;;;;;;4993968;28;20026;-69
2021/09/05 06:26:41;;;;;;;1.13;0.63;;;;;;;;;;5011743;28;20371;-69
2021/09/05 06:29:06;;;;;;;2.45;0.80;;;;;;;;;;5011091;28;20470;-69
2021/09/05 06:31:32;;;;;;;1.80;0.80;;;;;;;;;;5011310;28;20038;-68
2021/09/05 06:33:57;;;;;;;2.20;0.95;;;;;;;;;;5011412;28;20502;-69
2021/09/05 06:36:23;;;;;;;1.52;0.70;;;;;;;;;;5011649;28;20029;-69
2021/09/05 06:38:48;;;;;;;1.15;0.65;;;;;;;;;;5011000;28;20018;-69
2021/09/05 06:41:14;;;;;;;2.17;0.73;;;;;;;;;;5011503;28;20036;-69
2021/09/05 06:43:40;;;;;;;1.20;0.60;;;;;;;;;;5010026;28;20022;-69
2021/09/05 06:46:06;;;;;;;0.70;0.50;;;;;;;;;;5008997;28;20026;-69
2021/09/05 06:48:34;;;;;;;1.25;0.60;;;;;;;;;;5011707;28;20048;-69
2021/09/05 06:51:00;;;;;;;0.50;0.50;;;;;;;;;;5011230;28;20389;-69
2021/09/05 06:53:25;;;;;;;1.42;0.60;;;;;;;;;;5008515;28;20026;-69
2021/09/05 06:55:51;;;;;;;1.05;0.47;;;;;;;;;;5008979;28;20088;-69
2021/09/05 06:58:16;;;;;;;2.67;0.70;;;;;;;;;;5011175;28;20049;-69
2021/09/05 07:00:43;;;;;;;1.15;0.70;;;;;;;;;;5009733;28;20060;-69
2021/09/05 07:03:08;;;;;;;3.15;0.90;;;;;;;;;;5011381;28;20026;-69
2021/09/05 07:05:34;;;;;;;0.68;0.40;;;;;;;;;;5011412;28;20048;-69
2021/09/05 07:08:00;;;;;;;1.15;0.55;;;;;;;;;;5007328;28;20040;-68
2021/09/05 07:10:26;;;;;;;1.65;0.70;;;;;;;;;;5010948;28;20049;-69
2021/09/05 07:12:51;;;;;;;2.35;0.80;;;;;;;;;;5010738;28;20037;-69
2021/09/05 07:15:17;;;;;;;1.13;0.65;;;;;;;;;;5011287;28;20398;-69
2021/09/05 07:17:42;;;;;;;2.22;0.65;;;;;;;;;;4992992;28;20065;-69
2021/09/05 07:20:09;;;;;;;0.95;0.60;;;;;;;;;;5010960;28;20029;-68
2021/09/05 07:22:34;;;;;;;2.28;0.63;;;;;;;;;;5011178;28;20021;-69
2021/09/05 07:25:02;;;;;;;1.45;0.55;;;;;;;;;;5011121;28;20462;-69
2021/09/05 07:27:28;;;;;;;1.08;0.60;;;;;;;;;;5010532;28;20244;-69
2021/09/05 07:29:54;;;;;;;0.70;0.60;;;;;;;;;;5009653;28;20454;-69
2021/09/05 07:32:20;;;;;;;1.45;0.70;;;;;;;;;;5011230;28;20033;-71
2021/09/05 07:34:46;;;;;;;0.93;0.52;;;;;;;;;;5010725;28;20061;-70
2021/09/05 07:37:11;;;;;;;2.90;0.90;;;;;;;;;;5008750;28;20036;-69
2021/09/05 07:39:37;;;;;;;0.73;0.50;;;;;;;;;;4991494;28;20061;-68
2021/09/05 07:42:04;;;;;;;1.48;0.60;;;;;;;;;;4991515;28;20024;-68
2021/09/05 07:44:29;;;;;;;1.13;0.65;;;;;;;;;;4989615;28;20443;-69
2021/09/05 07:46:55;;;;;;;0.98;0.60;;;;;;;;;;4991172;28;20026;-68
2021/09/05 07:49:20;;;;;;;1.38;0.70;;;;;;;;;;5001146;28;20022;-69
2021/09/05 07:51:46;;;;;;;1.05;0.47;;;;;;;;;;5009985;28;20026;-68
2021/09/05 07:54:13;;;;;;;3.78;0.70;;;;;;;;;;4994169;28;20031;-67
2021/09/05 07:56:39;;;;;;;2.40;0.52;;;;;;;;;;5010045;28;20351;-68
2021/09/05 07:59:05;;;;;;;3.20;1.05;;;;;;;;;;5011470;28;20045;-67
2021/09/05 08:01:30;;;;;;;2.28;0.70;;;;;;;;;;5011093;28;20030;-68
2021/09/05 08:03:55;;;;;;;1.42;0.70;;;;;;;;;;5010740;28;20033;-68
2021/09/05 08:06:23;;;;;;;3.35;0.60;;;;;;;;;;5011482;28;20033;-67
2021/09/05 08:08:49;;;;;;;1.77;0.50;;;;;;;;;;5010909;28;20033;-67
2021/09/05 08:11:14;;;;;;;2.05;0.80;;;;;;;;;;5011875;28;20030;-68
2021/09/05 08:13:40;;;;;;;1.95;0.60;;;;;;;;;;5010814;28;20018;-67
2021/09/05 08:16:06;;;;;;;1.10;0.40;;;;;;;;;;5011061;28;20394;-68
2021/09/05 08:18:35;;;;;;;1.23;0.50;;;;;;;;;;5010685;28;20457;-69
2021/09/05 08:21:03;;;;;;;1.73;0.70;;;;;;;;;;5009925;28;20048;-68
2021/09/05 08:23:28;;;;;;;1.55;0.63;;;;;;;;;;5010207;28;20032;-67
2021/09/05 08:25:54;;;;;;;0.90;0.55;;;;;;;;;;5005037;28;20433;-67
2021/09/05 08:28:20;;;;;;;0.70;0.50;;;;;;;;;;5010688;28;20029;-68
2021/09/05 08:30:47;;;;;;;1.63;0.70;;;;;;;;;;5010281;28;20025;-67
2021/09/05 08:33:14;;;;;;;0.95;0.60;;;;;;;;;;5010886;28;20029;-67
2021/09/05 08:35:39;;;;;;;0.77;0.52;;;;;;;;;;5010237;28;20058;-68
2021/09/05 08:38:05;;;;;;;1.20;0.50;;;;;;;;;;5008725;28;20057;-67
2021/09/05 08:40:30;;;;;;;2.97;0.50;;;;;;;;;;4997642;28;20074;-69
2021/09/05 08:42:56;;;;;;;2.17;0.47;;;;;;;;;;5002871;28;20034;-68
2021/09/05 08:45:21;;;;;;;1.63;0.50;;;;;;;;;;5014316;28;20477;-68
2021/09/05 08:47:47;;;;;;;1.25;0.50;;;;;;;;;;4995005;28;20026;-68
2021/09/05 08:50:13;;;;;;;1.75;0.60;;;;;;;;;;4995596;28;20042;-68
2021/09/05 08:52:38;;;;;;;1.23;0.50;;;;;;;;;;5005681;28;20022;-68
2021/09/05 08:55:06;;;;;;;2.55;0.90;;;;;;;;;;5013310;28;20087;-68
2021/09/05 08:57:31;;;;;;;1.02;0.63;;;;;;;;;;5012352;28;20484;-67
2021/09/05 08:59:56;;;;;;;1.63;0.63;;;;;;;;;;5013220;28;20109;-69
2021/09/05 09:02:22;;;;;;;2.05;0.68;;;;;;;;;;5013210;28;20033;-68
2021/09/05 09:04:52;;;;;;;1.55;0.60;;;;;;;;;;5013292;28;20470;-70
2021/09/05 09:07:18;;;;;;;1.92;0.68;;;;;;;;;;5010242;28;20045;-66
2021/09/05 09:10:04;;;;;;;3.97;2.25;;;;;;;;;;4996804;28;20041;-68
2021/09/05 09:12:43;;;;;;;1.17;0.60;;;;;;;;;;5002979;28;20050;-67
2021/09/05 09:15:30;;;;;;;0.88;0.50;;;;;;;;;;5014141;28;20079;-66
2021/09/05 09:18:03;;;;;;;1.45;0.70;;;;;;;;;;5013422;28;20038;-68
2021/09/05 09:20:35;;;;;;;;;;;;;;;;;;5013482;28;20033;-66
2021/09/05 09:23:08;;;;;;;0.85;0.50;;;;;;;;;;5012033;28;19913;-66
2021/09/05 09:25:34;;;;;;;1.63;0.60;;;;;;;;;;5012916;28;20061;-67
2021/09/05 09:28:00;;;;;;;1.05;0.60;;;;;;;;;;4990836;28;20030;-67
2021/09/05 09:30:35;;;;;;;1.30;0.60;;;;;;;;;;5013813;28;20026;-67
2021/09/05 09:33:00;;;;;;;1.85;0.50;;;;;;;;;;5013519;28;20036;-67
2021/09/05 09:35:26;;;;;;;2.30;0.60;;;;;;;;;;5013028;28;20030;-67
2021/09/05 09:37:51;;;;;;;5.53;0.80;;;;;;;;;;5012570;28;20025;-68
2021/09/05 09:40:25;;;;;;;1.90;0.65;;;;;;;;;;5012826;28;20030;-66
2021/09/05 09:42:50;;;;;;;2.00;0.60;;;;;;;;;;5012706;28;20048;-67
2021/09/05 09:45:18;;;;;;;1.55;0.80;;;;;;;;;;5012721;28;20026;-67
2021/09/05 09:47:48;;;;;;;2.55;0.93;;;;;;;;;;5012402;28;20454;-68
2021/09/05 09:50:15;;;;;;;1.55;0.70;;;;;;;;;;5012659;28;20383;-68
2021/09/05 09:52:41;;;;;;;3.42;0.85;;;;;;;;;;5011962;28;20169;-67
2021/09/05 09:55:07;;;;;;;2.00;0.65;;;;;;;;;;5012416;28;20030;-67
2021/09/05 09:57:33;;;;;;;2.97;0.68;;;;;;;;;;5012554;28;20026;-67
2021/09/05 10:00:00;;;;;;;1.25;0.63;;;;;;;;;;5012396;28;20505;-67
2021/09/05 10:02:27;;;;;;;2.00;0.80;;;;;;;;;;5012483;28;20025;-68
2021/09/05 10:04:53;;;;;;;1.38;0.60;;;;;;;;;;5012205;28;20080;-66
2021/09/05 10:07:22;;;;;;;1.00;0.50;;;;;;;;;;5012087;28;20080;-67
2021/09/05 10:09:49;;;;;;;1.70;0.70;;;;;;;;;;5000170;28;20041;-67
2021/09/05 10:12:16;;;;;;;0.88;0.50;;;;;;;;;;5011186;28;20087;-65
2021/09/05 10:14:51;;;;;;;1.25;0.50;;;;;;;;;;5011398;28;20739;-66
2021/09/05 10:17:20;;;;;;;1.67;0.80;;;;;;;;;;5011523;28;20053;-65
2021/09/05 10:19:48;;;;;;;1.25;0.70;;;;;;;;;;5011882;28;20109;-66
2021/09/05 10:22:20;;;;;;;2.53;0.90;;;;;;;;;;5008451;28;20041;-65
2021/09/05 10:24:51;;;;;;;4.18;0.73;;;;;;;;;;5011284;28;20030;-67
2021/09/05 10:27:31;;;;;;;2.55;0.70;;;;;;;;;;5012141;28;20083;-66
2021/09/05 10:30:11;;;;;;;1.42;0.80;;;;;;;;;;4994944;28;20066;-66
2021/09/05 10:32:47;;;;;;;1.35;0.80;;;;;;;;;;5000090;28;20022;-65
2021/09/05 10:35:25;;;;;;;1.50;0.70;;;;;;;;;;5012023;28;20103;-66
2021/09/05 10:38:43;;;;;;;1.23;0.70;;;;;;;;;;5011944;28;20100;-66
2021/09/05 10:41:08;;;;;;;2.75;0.85;;;;;;;;;;5000790;28;20488;-65
2021/09/05 10:43:48;;;;;;;1.23;0.68;;;;;;;;;;5010894;28;20030;-65
2021/09/05 10:46:22;;;;;;;1.52;0.70;;;;;;;;;;4993246;28;20072;-68
2021/09/05 10:48:52;;;;;;;2.25;0.85;;;;;;;;;;5014012;28;20414;-68
2021/09/05 10:51:27;;;;;;;2.65;0.70;;;;;;;;;;5012893;28;20053;-67
2021/09/05 10:53:58;;;;;;;1.15;0.57;;;;;;;;;;4992588;28;20022;-68
2021/09/05 10:56:34;;;;;;;1.65;0.70;;;;;;;;;;5002869;28;20043;-68
2021/09/05 10:59:16;;;;;;;1.05;0.60;;;;;;;;;;5011650;28;20367;-67
2021/09/05 11:01:57;;;;;;;1.15;0.60;;;;;;;;;;5011809;28;20032;-66
2021/09/05 11:04:25;;;;;;;2.00;0.75;;;;;;;;;;5010874;28;20105;-68
2021/09/05 11:07:02;;;;;;;1.20;0.63;;;;;;;;;;5010316;28;20597;-68
2021/09/05 11:09:27;;;;;;;1.08;0.65;;;;;;;;;;5001844;28;20042;-67
2021/09/05 11:11:58;;;;;;;1.15;0.60;;;;;;;;;;5010688;28;20048;-68
2021/09/05 11:14:48;;;;;;;1.65;0.80;;;;;;;;;;5010813;28;20042;-68
2021/09/05 11:17:15;;;;;;;1.45;0.70;;;;;;;;;;5011316;28;20045;-69
2021/09/05 11:19:57;;;;;;;1.42;0.63;;;;;;;;;;5004570;28;20092;-68
2021/09/05 11:22:50;;;;;;;1.80;0.60;;;;;;;;;;5011026;28;20033;-67
2021/09/05 11:25:29;;;;;;;1.58;0.68;;;;;;;;;;5011370;28;20037;-68
2021/09/05 11:28:02;;;;;;;1.35;0.80;;;;;;;;;;5009447;28;20037;-68
2021/09/05 11:30:39;;;;;;;2.13;0.70;;;;;;;;;;5010493;28;20120;-68
2021/09/05 11:33:10;;;;;;;1.27;0.63;;;;;;;;;;5011138;28;20502;-68
2021/09/05 11:35:43;;;;;;;1.73;0.70;;;;;;;;;;5010692;28;20156;-68
2021/09/05 11:38:10;;;;;;;1.98;0.70;;;;;;;;;;5008649;28;20034;-67
2021/09/05 11:40:48;;;;;;;1.65;0.80;;;;;;;;;;5010575;28;20029;-67
2021/09/05 11:43:34;;;;;;;1.55;0.55;;;;;;;;;;5002688;28;20037;-67
2021/09/05 11:46:17;;;;;;;1.85;0.47;;;;;;;;;;5007937;28;20037;-67
2021/09/05 11:49:01;;;;;;;0.98;0.50;;;;;;;;;;5010155;28;20022;-68
2021/09/05 11:51:27;;;;;;;;;;;;;;;;;;5007347;28;20075;-67
2021/09/05 11:54:01;;;;;;;2.67;0.77;;;;;;;;;;5011276;28;19917;-67
2021/09/05 11:56:30;;;;;;;0.98;0.63;;;;;;;;;;5011178;28;20124;-67
2021/09/05 11:59:04;;;;;;;1.55;0.60;;;;;;;;;;5005761;28;20041;-66
2021/09/05 12:01:30;;;;;;;2.65;0.52;;;;;;;;;;5009547;28;20026;-67
2021/09/05 12:03:55;;;;;;;1.10;0.50;;;;;;;;;;5010938;28;20065;-67
2021/09/05 12:06:20;;;;;;;0.85;0.50;;;;;;;;;;5009820;28;20482;-66
2021/09/05 12:08:48;;;;;;;1.23;0.60;;;;;;;;;;5010392;28;20474;-69
2021/09/05 12:11:13;;;;;;;1.63;0.50;;;;;;;;;;5010219;28;20034;-68
2021/09/05 12:13:50;;;;;;;0.75;0.40;;;;;;;;;;5010968;28;20474;-66
2021/09/05 12:16:23;;;;;;;1.05;0.55;;;;;;;;;;5010267;28;20088;-67
2021/09/05 12:18:59;;;;;;;2.85;0.70;;;;;;;;;;5014652;28;20496;-68
2021/09/05 12:21:30;;;;;;;2.40;1.30;;;;;;;;;;5015215;28;20064;-69
2021/09/05 12:23:55;;;;;;;2.50;0.80;;;;;;;;;;5014151;28;20108;-66
2021/09/05 12:26:21;;;;;;;1.58;0.70;;;;;;;;;;5014394;28;20315;-67
2021/09/05 12:29:01;;;;;;;1.85;1.00;;;;;;;;;;5014006;28;20052;-68
2021/09/05 12:31:43;;;;;;;1.75;0.90;;;;;;;;;;5013542;28;20044;-68
2021/09/05 12:34:43;;;;;;;3.47;1.35;;;;;;;;;;5015982;28;20030;-68
2021/09/05 12:37:16;;;;;;;1.65;0.60;;;;;;;;;;4989529;28;20042;-67
2021/09/05 12:39:42;;;;;;;1.92;0.82;;;;;;;;;;4998284;28;20382;-67
2021/09/05 12:42:13;;;;;;;1.05;0.60;;;;;;;;;;5013939;28;20018;-68
2021/09/05 12:44:43;;;;;;;1.58;0.70;;;;;;;;;;5013049;28;20017;-68
2021/09/05 12:47:09;;;;;;;1.60;1.10;;;;;;;;;;5013843;28;20030;-68
2021/09/05 12:49:40;;;;;;;1.50;0.70;;;;;;;;;;5014196;28;20104;-68
2021/09/05 12:52:07;;;;;;;2.15;0.90;;;;;;;;;;5013961;28;20164;-68
2021/09/05 12:54:38;;;;;;;2.08;0.50;;;;;;;;;;5014069;28;20087;-67
2021/09/05 12:57:05;;;;;;;2.05;0.95;;;;;;;;;;5014143;28;20076;-66
2021/09/05 12:59:31;;;;;;;1.45;0.50;;;;;;;;;;5013915;28;20462;-67
2021/09/05 13:01:56;;;;;;;1.92;0.52;;;;;;;;;;5012538;28;20183;-66
2021/09/05 13:04:22;;;;;;;0.70;0.43;;;;;;;;;;5013304;28;20104;-70
2021/09/05 13:06:48;;;;;;;0.70;0.50;;;;;;;;;;5014156;28;20390;-68
2021/09/05 13:09:14;;;;;;;2.72;0.73;;;;;;;;;;5002939;28;20050;-68
2021/09/05 13:11:41;;;;;;;1.35;0.60;;;;;;;;;;5013858;28;20041;-68
2021/09/05 13:14:06;;;;;;;1.85;0.70;;;;;;;;;;5016049;28;20509;-69
2021/09/05 13:16:32;;;;;;;1.75;0.60;;;;;;;;;;5014475;28;20034;-69
2021/09/05 13:18:57;;;;;;;1.88;0.60;;;;;;;;;;5015648;28;20034;-70
2021/09/05 13:21:23;;;;;;;1.90;0.60;;;;;;;;;;5014281;28;20495;-69
2021/09/05 13:23:50;;;;;;;1.00;0.50;;;;;;;;;;5013145;28;20030;-67
2021/09/05 13:26:19;;;;;;;0.95;0.50;;;;;;;;;;5013295;28;20088;-68
2021/09/05 13:28:44;;;;;;;1.05;0.60;;;;;;;;;;5012616;28;20358;-68
2021/09/05 13:31:14;;;;;;;2.28;0.80;;;;;;;;;;5013223;28;20109;-68
2021/09/05 13:33:48;;;;;;;1.23;0.50;;;;;;;;;;5013987;28;20045;-69
2021/09/05 13:36:14;;;;;;;0.85;0.60;;;;;;;;;;5013833;28;20541;-69
2021/09/05 13:38:39;;;;;;;1.10;0.70;;;;;;;;;;5013373;28;20050;-69
2021/09/05 13:41:04;;;;;;;1.65;0.70;;;;;;;;;;5011993;28;20030;-70
2021/09/05 13:43:30;;;;;;;1.15;0.50;;;;;;;;;;5013065;28;20543;-69
2021/09/05 13:45:56;;;;;;;1.20;0.60;;;;;;;;;;5003060;28;20038;-69
2021/09/05 13:48:21;;;;;;;0.98;0.50;;;;;;;;;;4995297;28;20109;-69
2021/09/05 13:50:47;;;;;;;1.08;0.50;;;;;;;;;;4995743;28;20022;-69
2021/09/05 13:53:13;;;;;;;1.02;0.60;;;;;;;;;;5007868;28;20079;-69
2021/09/05 13:55:38;;;;;;;0.90;0.50;;;;;;;;;;5012772;28;20025;-69
2021/09/05 13:58:03;;;;;;;1.63;0.40;;;;;;;;;;5012631;28;20467;-68
2021/09/05 14:00:29;;;;;;;1.40;0.50;;;;;;;;;;5000471;28;20018;-68
2021/09/05 14:02:54;;;;;;;0.77;0.50;;;;;;;;;;4995064;28;20029;-68
2021/09/05 14:05:20;;;;;;;2.20;0.60;;;;;;;;;;4998245;28;20105;-68
2021/09/05 14:07:46;;;;;;;1.55;0.60;;;;;;;;;;5005691;28;20030;-68
2021/09/05 14:10:12;;;;;;;0.68;0.40;;;;;;;;;;5012416;28;20057;-67
2021/09/05 14:12:37;;;;;;;0.90;0.63;;;;;;;;;;5013268;28;20029;-68
2021/09/05 14:15:04;;;;;;;2.88;1.48;;;;;;;;;;5011896;28;20083;-68
2021/09/05 14:17:30;;;;;;;1.17;0.60;;;;;;;;;;5011582;28;20029;-68
2021/09/05 14:19:55;;;;;;;0.68;0.47;;;;;;;;;;5011972;28;20025;-69
2021/09/05 14:22:21;;;;;;;2.25;0.63;;;;;;;;;;5012433;28;20490;-68
2021/09/05 14:24:46;;;;;;;0.85;0.60;;;;;;;;;;5012856;28;20084;-69
2021/09/05 14:27:16;;;;;;;1.58;0.63;;;;;;;;;;5012241;28;20415;-70
2021/09/05 14:30:04;;;;;;;1.73;0.70;;;;;;;;;;5011407;28;20037;-68
2021/09/05 14:32:40;;;;;;;2.22;0.55;;;;;;;;;;5011513;28;20022;-68
2021/09/05 14:48:41;;;;;;;0.77;0.50;;;;;;;;;;5011377;28;20478;-67
2021/09/05 14:56:19;;;;;;;1.05;0.40;;;;;;;;;;5001993;28;20437;-67
2021/09/05 14:59:02;;;;;;;1.92;0.50;;;;;;;;;;5013577;28;20017;-67
2021/09/05 15:01:36;;;;;;;0.82;0.50;;;;;;;;;;5022980;28;20026;-67
2021/09/05 15:04:12;;;;;;;0.98;0.60;;;;;;;;;;5023414;28;20040;-67
2021/09/05 15:11:49;;;;;;;1.00;0.50;;;;;;;;;;5011384;28;20037;-68
2021/09/05 15:14:15;;;;;;;1.40;0.70;;;;;;;;;;5011152;28;20038;-68